createdAt,value
2019-01-29T06:26:26.813Z,28.90
2019-01-29T06:27:23.627Z,31.90
2019-01-29T06:28:23.516Z,31.50
2019-01-29T06:29:23.952Z,27.40
2019-01-29T06:30:23.379Z,25.90
2019-01-29T06:31:23.337Z,31.60
2019-01-29T06:32:23.304Z,31.40
2019-01-29T06:33:23.379Z,27.20
2019-01-29T06:34:23.326Z,32.60
2019-01-29T06:35:23.652Z,31.80
2019-01-29T06:36:23.238Z,29.90
2019-01-29T06:37:23.440Z,32.40
2019-01-29T06:38:23.153Z,26.60
2019-01-29T06:39:23.142Z,32.90
2019-01-29T06:40:23.244Z,26.60
2019-01-29T06:41:23.804Z,30.00
2019-01-29T06:42:23.119Z,28.50
2019-01-29T06:43:23.264Z,27.30
2019-01-29T06:44:23.135Z,26.40
2019-01-29T06:45:23.155Z,31.70
2019-01-29T06:46:23.237Z,28.30
2019-01-29T06:47:24.021Z,30.90
2019-01-29T06:48:23.044Z,26.60
2019-01-29T06:49:23.080Z,31.00
2019-01-29T06:50:23.681Z,28.70
2019-01-29T06:51:40.575Z,27.40
2019-01-29T06:52:23.048Z,29.20
2019-01-29T06:53:23.219Z,27.70
2019-01-29T06:54:23.215Z,27.60
2019-01-29T06:55:23.176Z,30.70
2019-01-29T06:56:23.194Z,28.90
2019-01-29T06:57:23.452Z,32.50
2019-01-29T06:58:23.003Z,27.30
2019-01-29T06:59:23.316Z,27.10
2019-01-29T07:00:22.990Z,30.50
2019-01-29T07:01:22.998Z,33.40
2019-01-29T07:02:23.093Z,39.40
2019-01-29T07:03:24.195Z,30.70
2019-01-29T07:04:23.198Z,26.40
2019-01-29T07:05:22.882Z,33.90
2019-01-29T07:06:22.865Z,31.20
2019-01-29T07:07:22.938Z,26.30
2019-01-29T07:08:22.906Z,28.80
2019-01-29T07:09:22.913Z,29.10
2019-01-29T07:10:23.140Z,28.00
2019-01-29T07:11:23.134Z,28.40
2019-01-29T07:12:22.903Z,31.50
2019-01-29T07:13:24.874Z,30.30
2019-01-29T07:14:24.094Z,30.90
2019-01-29T07:15:23.023Z,26.00
2019-01-29T07:16:23.341Z,25.40
2019-01-29T07:17:23.062Z,31.60
2019-01-29T07:18:23.802Z,32.60
2019-01-29T07:20:25.255Z,30.60
2019-01-29T07:21:23.512Z,29.50
2019-01-29T07:22:23.065Z,29.60
2019-01-29T07:23:23.177Z,26.90
2019-01-29T07:24:23.066Z,33.50
2019-01-29T07:25:22.727Z,27.70
2019-01-29T07:26:22.784Z,31.30
2019-01-29T07:27:22.829Z,30.10
2019-01-29T07:28:22.750Z,27.50
2019-01-29T07:29:22.705Z,34.90
2019-01-29T07:30:22.741Z,30.70
2019-01-29T07:31:22.744Z,34.60
2019-01-29T07:32:22.734Z,27.00
2019-01-29T07:33:22.581Z,28.50
2019-01-29T07:34:22.969Z,26.90
2019-01-29T07:35:22.652Z,29.30
2019-01-29T07:36:22.684Z,27.50
2019-01-29T07:37:22.605Z,29.60
2019-01-29T07:38:22.772Z,28.70
2019-01-29T07:39:22.658Z,30.30
2019-01-29T07:40:22.567Z,29.00
2019-01-29T07:41:22.914Z,28.40
2019-01-29T07:42:22.580Z,30.20
2019-01-29T07:43:22.661Z,33.90
2019-01-29T07:44:22.991Z,26.60
2019-01-29T07:45:22.628Z,30.30
2019-01-29T07:46:25.279Z,33.60
2019-01-29T07:47:24.491Z,29.50
2019-01-29T07:48:22.705Z,26.40
2019-01-29T07:49:23.196Z,30.30
2019-01-29T07:50:23.630Z,29.30
2019-01-29T07:51:23.024Z,31.60
2019-01-29T07:52:25.111Z,22.10
2019-01-29T07:53:24.192Z,28.70
2019-01-29T07:54:23.365Z,27.20
2019-01-29T07:55:23.067Z,25.60
2019-01-29T07:56:23.088Z,28.00
2019-01-29T07:57:22.587Z,25.50
2019-01-29T07:58:24.569Z,28.60
2019-01-29T07:59:32.630Z,26.50
2019-01-29T08:00:23.668Z,27.40
2019-01-29T08:01:22.566Z,28.30
2019-01-29T08:02:23.035Z,32.00
2019-01-29T08:03:22.814Z,28.80
2019-01-29T08:04:22.846Z,29.80
2019-01-29T08:05:23.792Z,25.50
2019-01-29T08:06:23.446Z,29.60
2019-01-29T08:07:23.902Z,26.30
2019-01-29T08:08:23.480Z,26.10
2019-01-29T08:09:23.063Z,25.20
2019-01-29T08:10:24.604Z,34.30
2019-01-29T08:11:24.606Z,28.30
2019-01-29T08:12:22.992Z,27.50
2019-01-29T08:13:23.864Z,33.30
2019-01-29T08:14:25.648Z,33.90
2019-01-29T08:15:22.860Z,31.70
2019-01-29T08:16:23.123Z,37.80
2019-01-29T08:17:25.521Z,38.20
2019-01-29T08:18:22.643Z,33.10
2019-01-29T08:19:24.341Z,34.20
2019-01-29T08:20:23.261Z,36.20
2019-01-29T08:21:24.310Z,38.00
2019-01-29T08:22:22.543Z,34.30
2019-01-29T08:23:22.239Z,34.10
2019-01-29T08:24:23.955Z,32.70
2019-01-29T08:25:22.289Z,39.70
2019-01-29T08:26:23.457Z,38.40
2019-01-29T08:27:23.167Z,31.30
2019-01-29T08:28:22.516Z,29.50
2019-01-29T08:29:22.230Z,31.30
2019-01-29T08:30:22.502Z,32.20
2019-01-29T08:31:22.543Z,38.10
2019-01-29T08:32:22.376Z,35.30
2019-01-29T08:33:23.390Z,36.30
2019-01-29T08:34:22.649Z,32.10
2019-01-29T08:35:23.214Z,39.10
2019-01-29T08:36:22.539Z,37.20
2019-01-29T08:37:23.586Z,35.70
2019-01-29T08:38:22.858Z,32.90
2019-01-29T08:39:22.609Z,42.70
2019-01-29T08:40:22.092Z,41.40
2019-01-29T08:41:24.980Z,42.00
2019-01-29T08:42:24.056Z,34.20
2019-01-29T08:43:22.375Z,36.20
2019-01-29T08:44:22.542Z,39.60
2019-01-29T08:45:22.020Z,38.10
2019-01-29T08:46:23.347Z,38.10
2019-01-29T08:47:22.340Z,36.50
2019-01-29T08:48:22.129Z,40.40
2019-01-29T08:49:22.269Z,38.10
2019-01-29T08:50:22.581Z,47.00
2019-01-29T08:51:23.067Z,39.90
2019-01-29T08:52:22.659Z,42.30
2019-01-29T08:53:22.042Z,36.60
2019-01-29T08:54:21.916Z,39.60
2019-01-29T08:55:22.203Z,37.90
2019-01-29T08:56:22.745Z,39.50
2019-01-29T08:57:23.165Z,44.90
2019-01-29T08:58:27.246Z,39.70
2019-01-29T08:59:22.548Z,41.80
2019-01-29T09:00:22.210Z,42.10
2019-01-29T09:01:23.078Z,37.20
2019-01-29T09:02:23.669Z,43.10
2019-01-29T09:03:23.167Z,43.90
2019-01-29T09:04:24.130Z,41.60
2019-01-29T13:39:58.864Z,5.30
2019-01-29T13:40:50.184Z,5.20
2019-01-29T13:41:50.832Z,4.90
2019-01-29T13:45:09.555Z,5.60
2019-01-29T14:29:07.748Z,5.20
2019-01-29T14:30:08.408Z,5.70
2019-01-29T14:31:08.147Z,7.70
2019-01-29T14:32:07.530Z,6.80
2019-01-29T14:33:07.487Z,6.30
2019-01-29T14:34:07.507Z,7.20
2019-01-29T14:35:07.542Z,5.00
2019-01-29T14:36:16.519Z,6.80
2019-01-29T16:23:45.471Z,4.90
2019-01-29T16:24:45.958Z,10.10
2019-01-29T16:25:43.909Z,11.10
2019-01-29T16:26:52.119Z,11.00
2019-01-29T16:27:49.758Z,13.60
2019-01-29T16:28:51.366Z,10.00
2019-01-29T16:29:45.416Z,9.30
2019-01-29T16:30:45.278Z,10.80
2019-01-29T16:40:50.807Z,14.60
2019-01-29T16:41:50.344Z,12.30
2019-01-29T16:42:51.066Z,9.70
2019-01-29T16:43:51.964Z,11.80
2019-01-29T16:44:50.874Z,10.20
2019-01-29T16:45:50.681Z,12.60
2019-01-29T16:46:51.398Z,11.00
2019-01-29T16:47:50.071Z,9.50
2019-01-29T16:48:52.414Z,16.30
2019-01-29T16:49:49.989Z,11.40
2019-01-29T16:50:50.041Z,12.70
2019-01-29T16:51:49.716Z,15.00
2019-01-29T16:52:49.954Z,14.60
2019-01-29T16:53:49.703Z,12.90
2019-01-29T16:54:50.982Z,11.30
2019-01-29T16:55:50.893Z,13.20
2019-01-29T16:56:49.783Z,11.90
2019-01-29T16:57:50.174Z,12.30
2019-01-29T16:58:50.151Z,13.00
2019-01-29T16:59:50.565Z,11.80
2019-01-29T17:00:49.701Z,10.80
2019-01-29T17:01:49.661Z,11.80
2019-01-29T17:03:50.042Z,10.30
2019-01-29T17:04:49.751Z,11.70
2019-01-29T17:05:49.582Z,9.20
2019-01-29T17:06:49.701Z,13.90
2019-01-29T17:07:49.567Z,11.50
2019-01-29T17:08:49.644Z,13.90
2019-01-29T17:09:49.570Z,11.90
2019-01-29T17:10:49.532Z,12.30
2019-01-29T17:11:50.553Z,10.30
2019-01-29T17:12:49.564Z,11.40
2019-01-29T17:13:49.595Z,8.30
2019-01-29T17:14:49.971Z,12.50
2019-01-29T17:15:51.925Z,13.70
2019-01-29T17:16:52.428Z,9.30
2019-01-29T17:17:49.517Z,11.30
2019-01-29T17:18:49.582Z,10.70
2019-01-29T17:19:50.409Z,13.40
2019-01-29T17:20:52.938Z,9.20
2019-01-29T17:21:49.564Z,11.40
2019-01-29T17:22:49.987Z,8.80
2019-01-29T17:23:49.855Z,10.90
2019-01-29T17:24:49.575Z,10.90
2019-01-29T17:25:49.953Z,12.40
2019-01-29T17:26:49.543Z,10.90
2019-01-29T17:27:51.895Z,10.00
2019-01-29T17:29:00.328Z,13.90
2019-01-29T17:30:00.871Z,15.90
2019-01-29T18:41:03.030Z,10.00
2019-01-29T18:42:03.248Z,16.10
2019-01-29T18:43:03.911Z,11.10
2019-01-29T18:44:02.903Z,14.80
2019-01-29T18:45:02.961Z,11.70
2019-01-29T18:46:04.922Z,12.90
2019-01-29T18:47:02.913Z,15.60
2019-01-29T18:48:02.917Z,12.50
2019-01-29T18:49:02.955Z,18.80
2019-01-29T18:50:02.860Z,12.90
2019-01-29T18:51:02.972Z,15.80
2019-01-29T18:52:02.953Z,12.40
2019-01-29T18:53:02.838Z,14.10
2019-01-29T18:54:02.920Z,21.80
2019-01-29T18:55:02.955Z,18.40
2019-01-29T18:56:02.806Z,18.70
2019-01-29T18:57:02.926Z,18.30
2019-01-29T18:58:11.463Z,18.10
2019-01-29T18:59:03.948Z,18.40
2019-01-29T19:00:03.036Z,19.50
2019-01-29T19:01:02.818Z,18.70
2019-01-29T19:02:02.807Z,19.00
2019-01-29T19:03:02.870Z,16.10
2019-01-29T19:04:02.706Z,17.50
2019-01-29T19:05:02.841Z,16.80
2019-01-29T19:06:02.859Z,18.70
2019-01-29T19:07:02.735Z,15.60
2019-01-29T19:08:05.121Z,14.70
2019-01-29T19:09:02.928Z,20.40
2019-01-29T19:10:02.811Z,16.10
2019-01-29T19:11:02.583Z,15.10
2019-01-29T19:12:02.635Z,13.20
2019-01-29T19:13:02.632Z,15.70
2019-01-29T19:14:38.479Z,13.60
2019-01-29T19:16:03.065Z,12.00
2019-01-29T19:19:49.339Z,13.00
2019-01-29T19:20:49.278Z,12.60
2019-01-29T19:21:49.393Z,13.40
2019-01-29T19:22:49.344Z,10.90
2019-01-29T19:23:49.479Z,9.50
2019-01-29T19:24:49.506Z,14.50
2019-01-29T19:25:49.319Z,11.50
2019-01-29T19:26:49.710Z,15.00
2019-01-29T19:27:59.064Z,9.60
2019-01-29T19:28:49.287Z,11.50
2019-01-29T19:30:11.950Z,12.60
2019-01-29T19:30:49.563Z,11.60
2019-01-29T19:31:51.133Z,12.80
2019-01-29T19:33:49.057Z,11.60
2019-01-29T19:34:49.228Z,17.10
2019-01-29T19:35:49.026Z,10.90
2019-01-29T19:36:49.215Z,15.90
2019-01-29T19:37:49.010Z,15.10
2019-01-29T19:38:49.017Z,17.20
2019-01-29T19:39:51.363Z,12.90
2019-01-29T19:40:50.375Z,15.00
2019-01-29T19:41:50.317Z,11.70
2019-01-29T19:43:20.324Z,11.00
2019-01-29T19:43:49.635Z,12.70
2019-01-29T19:45:06.095Z,11.20
2019-01-29T19:45:51.305Z,14.70
2019-01-29T19:46:51.413Z,11.80
2019-01-29T19:48:05.345Z,10.70
2019-01-29T20:04:09.566Z,12.60
2019-01-29T20:05:08.732Z,15.20
2019-01-29T20:06:09.145Z,12.90
2019-01-29T20:07:09.146Z,12.60
2019-01-29T20:08:08.781Z,12.20
2019-01-29T20:09:38.032Z,12.80
2019-01-29T20:27:26.516Z,16.00
2019-01-29T20:28:30.812Z,17.50
2019-01-29T20:29:27.187Z,19.00
2019-01-29T20:30:28.055Z,16.30
2019-01-29T20:31:26.980Z,16.90
2019-01-29T20:32:26.751Z,15.20
2019-01-29T20:33:28.061Z,16.50
2019-01-29T20:43:54.684Z,16.40
2019-01-29T20:44:55.727Z,16.20
2019-01-29T20:45:54.559Z,17.70
2019-01-29T20:46:55.228Z,15.40
2019-01-29T20:47:54.872Z,18.40
2019-01-29T20:48:54.753Z,12.70
2019-01-29T20:49:54.626Z,15.80
2019-01-29T20:50:54.513Z,15.40
2019-01-29T20:51:54.678Z,15.40
2019-01-29T20:52:54.653Z,17.30
2019-01-29T20:53:54.791Z,12.90
2019-01-29T20:54:54.878Z,23.70
2019-01-29T20:55:54.717Z,15.00
2019-01-29T20:56:54.835Z,14.50
2019-01-29T20:57:55.142Z,15.00
2019-01-29T20:58:59.112Z,15.10
2019-01-29T20:59:56.956Z,15.60
2019-01-29T21:01:02.203Z,16.10
2019-01-29T21:01:55.537Z,14.90
2019-01-29T21:02:55.318Z,17.30
2019-01-29T21:03:55.359Z,15.80
2019-01-29T21:09:41.624Z,15.80
2019-01-29T21:10:40.666Z,16.40
2019-01-29T21:11:40.404Z,11.60
2019-01-29T21:12:40.448Z,11.00
2019-01-29T21:13:40.670Z,14.40
2019-01-29T21:14:40.854Z,13.90
2019-01-29T21:15:41.384Z,14.00
2019-01-29T21:16:42.985Z,11.30
2019-01-29T21:17:42.400Z,12.70
2019-01-29T21:18:40.418Z,11.80
2019-01-29T21:19:40.509Z,12.00
2019-01-29T21:20:40.438Z,12.70
2019-01-29T21:21:40.503Z,10.60
2019-01-29T21:22:41.301Z,11.60
2019-01-29T21:23:40.568Z,12.10
2019-01-29T21:24:40.786Z,11.90
2019-01-29T21:25:40.308Z,12.50
2019-01-29T21:26:40.897Z,12.10
2019-01-29T21:27:40.289Z,10.10
2019-01-29T21:28:40.223Z,10.60
2019-01-29T21:29:40.237Z,9.60
2019-01-29T21:30:40.193Z,9.80
2019-01-29T21:31:40.165Z,10.40
2019-01-29T21:32:40.214Z,11.70
2019-01-29T21:33:40.215Z,11.40
2019-01-29T21:34:40.188Z,8.20
2019-01-29T21:35:40.834Z,9.20
2019-01-29T21:36:40.277Z,9.00
2019-01-29T21:37:40.109Z,10.50
2019-01-29T21:38:40.110Z,12.50
2019-01-29T21:39:40.103Z,9.00
2019-01-29T21:40:40.057Z,15.30
2019-01-29T21:41:40.064Z,10.70
2019-01-29T21:42:40.729Z,12.30
2019-01-29T21:55:45.245Z,7.50
2019-01-29T21:56:45.321Z,12.30
2019-01-29T21:57:45.143Z,12.10
2019-01-29T21:58:44.278Z,12.80
2019-01-29T21:59:50.522Z,15.30
2019-01-29T22:00:43.909Z,17.00
2019-01-29T22:01:44.726Z,15.60
2019-01-29T22:02:45.151Z,18.40
2019-01-29T22:03:43.889Z,18.00
2019-01-29T22:05:01.252Z,15.50
2019-01-29T22:05:46.430Z,22.50
2019-01-29T22:06:43.805Z,16.10
2019-01-29T22:07:43.627Z,17.40
2019-01-29T22:08:43.595Z,13.60
2019-01-29T22:09:43.857Z,15.40
2019-01-29T22:10:43.856Z,15.20
2019-01-29T22:11:44.199Z,16.30
2019-01-29T22:12:44.867Z,9.00
2019-01-29T22:13:43.678Z,12.40
2019-01-29T22:14:43.634Z,12.60
2019-01-29T22:15:43.729Z,12.40
2019-01-29T22:16:43.749Z,10.70
2019-01-29T22:17:43.705Z,7.60
2019-01-29T22:18:43.579Z,10.30
2019-01-29T22:19:43.591Z,10.40
2019-01-29T22:22:18.744Z,7.20
2019-01-29T22:23:18.893Z,9.50
2019-01-29T22:24:18.375Z,10.50
2019-01-29T22:25:18.341Z,10.20
2019-01-29T22:26:18.111Z,11.70
2019-01-29T22:37:49.873Z,10.90
2019-01-29T22:38:50.013Z,9.30
2019-01-29T22:39:50.058Z,12.30
2019-01-29T22:40:49.765Z,11.70
2019-01-29T22:41:49.611Z,12.00
2019-01-29T22:42:49.670Z,12.70
2019-01-29T22:43:49.662Z,12.10
2019-01-29T22:44:49.505Z,11.90
2019-01-29T22:45:49.504Z,15.30
2019-01-29T22:46:49.459Z,11.60
2019-01-29T22:54:50.273Z,12.40
2019-01-29T22:55:50.264Z,13.20
2019-01-29T22:56:50.592Z,13.70
2019-01-29T22:57:50.058Z,13.50
2019-01-29T22:58:50.050Z,14.50
2019-01-29T22:59:49.977Z,14.30
2019-01-29T23:00:50.191Z,13.40
2019-01-29T23:01:49.917Z,13.00
2019-01-29T23:02:49.910Z,13.30
2019-01-29T23:03:49.931Z,15.50
2019-01-29T23:04:49.886Z,11.40
2019-01-29T23:05:49.907Z,13.50
2019-01-29T23:06:49.862Z,12.60
2019-01-29T23:07:49.863Z,15.60
2019-01-29T23:08:49.876Z,15.90
2019-01-29T23:09:49.851Z,14.00
2019-01-29T23:10:49.821Z,15.20
2019-01-29T23:11:49.812Z,15.80
2019-01-29T23:12:49.803Z,13.70
2019-01-29T23:13:49.898Z,14.40
2019-01-29T23:14:49.882Z,18.10
2019-01-29T23:15:49.823Z,16.30
2019-01-29T23:16:49.810Z,15.60
2019-01-29T23:17:49.853Z,15.30
2019-01-29T23:18:49.805Z,13.20
2019-01-29T23:19:58.743Z,15.80
2019-01-29T23:20:49.867Z,16.30
2019-01-29T23:21:49.842Z,14.30
2019-01-29T23:22:49.813Z,15.40
2019-01-29T23:23:49.737Z,16.10
2019-01-29T23:24:49.825Z,14.50
2019-01-29T23:25:49.854Z,15.40
2019-01-29T23:26:49.784Z,14.50
2019-01-29T23:27:49.641Z,17.30
2019-01-29T23:29:59.743Z,18.00
2019-01-29T23:30:59.630Z,15.40
2019-01-29T23:31:59.760Z,13.90
2019-01-29T23:32:59.608Z,14.60
2019-01-29T23:33:59.596Z,17.70
2019-01-29T23:34:59.586Z,16.00
2019-01-29T23:35:59.629Z,17.00
2019-01-29T23:36:59.567Z,16.10
2019-01-29T23:37:59.553Z,19.10
2019-01-29T23:38:59.548Z,17.20
2019-01-29T23:39:59.554Z,13.70
2019-01-29T23:40:59.563Z,15.60
2019-01-29T23:41:59.507Z,14.60
2019-01-29T23:42:59.497Z,15.40
2019-01-29T23:43:59.489Z,15.30
2019-01-29T23:44:59.486Z,19.20
2019-01-29T23:45:59.508Z,16.00
2019-01-29T23:47:00.142Z,15.90
2019-01-29T23:47:59.450Z,16.00
2019-01-29T23:48:59.434Z,15.00
2019-01-29T23:49:59.435Z,15.70
2019-01-29T23:50:59.447Z,14.30
2019-01-29T23:51:59.429Z,14.70
2019-01-29T23:52:59.396Z,14.60
2019-01-29T23:53:59.420Z,17.80
2019-01-29T23:54:59.391Z,14.40
2019-01-29T23:55:59.366Z,14.20
2019-01-29T23:56:59.368Z,14.50
2019-01-29T23:57:59.346Z,14.50
2019-01-29T23:58:59.345Z,16.50
2019-01-29T23:59:59.325Z,17.10
